sensor_id;sensor_type;location;lat;lon;timestamp;pressure;altitude;pressure_sealevel;temperature;humidity
42297;BME280;28985;47.456;19.016;2022-07-05T00:01:17;100175.72;;;26.30;47.27
42297;BME280;28985;47.456;19.016;2022-07-05T00:03:44;100173.44;;;26.26;47.18
42297;BME280;28985;47.456;19.016;2022-07-05T00:06:10;100182.22;;;26.23;47.66
42297;BME280;28985;47.456;19.016;2022-07-05T00:08:38;100179.09;;;26.20;48.05
42297;BME280;28985;47.456;19.016;2022-07-05T00:11:04;100186.75;;;26.18;48.06
42297;BME280;28985;47.456;19.016;2022-07-05T00:13:31;100188.00;;;26.10;49.15
42297;BME280;28985;47.456;19.016;2022-07-05T00:15:58;100185.38;;;26.03;49.97
42297;BME280;28985;47.456;19.016;2022-07-05T00:18:25;100195.97;;;25.94;49.90
42297;BME280;28985;47.456;19.016;2022-07-05T00:20:51;100191.91;;;25.85;50.38
42297;BME280;28985;47.456;19.016;2022-07-05T00:23:18;100189.31;;;25.78;50.38
42297;BME280;28985;47.456;19.016;2022-07-05T00:25:44;100193.88;;;25.72;50.71
42297;BME280;28985;47.456;19.016;2022-07-05T00:28:11;100191.38;;;25.71;50.33
42297;BME280;28985;47.456;19.016;2022-07-05T00:30:39;100185.59;;;25.72;50.37
42297;BME280;28985;47.456;19.016;2022-07-05T00:33:06;100190.75;;;25.69;50.45
42297;BME280;28985;47.456;19.016;2022-07-05T00:35:32;100177.47;;;25.66;51.08
42297;BME280;28985;47.456;19.016;2022-07-05T00:37:59;100172.69;;;25.61;50.63
42297;BME280;28985;47.456;19.016;2022-07-05T00:40:25;100175.69;;;25.59;50.36
42297;BME280;28985;47.456;19.016;2022-07-05T00:42:52;100172.84;;;25.54;50.89
42297;BME280;28985;47.456;19.016;2022-07-05T00:45:19;100173.50;;;25.50;50.71
42297;BME280;28985;47.456;19.016;2022-07-05T00:47:45;100173.16;;;25.46;51.08
42297;BME280;28985;47.456;19.016;2022-07-05T00:50:12;100173.03;;;25.41;51.64
42297;BME280;28985;47.456;19.016;2022-07-05T00:52:38;100176.88;;;25.40;51.45
42297;BME280;28985;47.456;19.016;2022-07-05T00:55:05;100175.44;;;25.37;51.53
42297;BME280;28985;47.456;19.016;2022-07-05T00:57:33;100179.50;;;25.34;51.70
42297;BME280;28985;47.456;19.016;2022-07-05T00:59:59;100182.78;;;25.31;51.37
42297;BME280;28985;47.456;19.016;2022-07-05T01:02:26;100187.31;;;25.26;51.65
42297;BME280;28985;47.456;19.016;2022-07-05T01:04:53;100191.16;;;25.25;52.48
42297;BME280;28985;47.456;19.016;2022-07-05T01:07:21;100177.25;;;25.19;52.20
42297;BME280;28985;47.456;19.016;2022-07-05T01:09:48;100174.28;;;25.09;52.52
42297;BME280;28985;47.456;19.016;2022-07-05T01:12:16;100170.69;;;25.09;52.45
42297;BME280;28985;47.456;19.016;2022-07-05T01:14:44;100179.41;;;25.05;51.82
42297;BME280;28985;47.456;19.016;2022-07-05T01:17:12;100182.06;;;25.00;52.21
42297;BME280;28985;47.456;19.016;2022-07-05T01:19:39;100186.25;;;24.91;52.02
42297;BME280;28985;47.456;19.016;2022-07-05T01:22:16;100182.63;;;24.90;52.18
42297;BME280;28985;47.456;19.016;2022-07-05T01:24:45;100179.63;;;24.80;52.71
42297;BME280;28985;47.456;19.016;2022-07-05T01:27:12;100180.31;;;24.75;52.52
42297;BME280;28985;47.456;19.016;2022-07-05T01:29:39;100179.72;;;24.73;53.77
42297;BME280;28985;47.456;19.016;2022-07-05T01:32:06;100170.38;;;24.62;53.65
42297;BME280;28985;47.456;19.016;2022-07-05T01:34:33;100175.03;;;24.62;53.21
42297;BME280;28985;47.456;19.016;2022-07-05T01:37:03;100169.63;;;24.55;53.16
42297;BME280;28985;47.456;19.016;2022-07-05T01:39:31;100169.25;;;24.51;52.33
42297;BME280;28985;47.456;19.016;2022-07-05T01:41:58;100167.81;;;24.49;52.33
42297;BME280;28985;47.456;19.016;2022-07-05T01:44:25;100177.63;;;24.45;52.14
42297;BME280;28985;47.456;19.016;2022-07-05T01:46:55;100161.25;;;24.50;52.41
42297;BME280;28985;47.456;19.016;2022-07-05T01:49:25;100167.00;;;24.48;51.71
42297;BME280;28985;47.456;19.016;2022-07-05T01:51:59;100157.06;;;24.47;51.50
42297;BME280;28985;47.456;19.016;2022-07-05T01:54:28;100164.25;;;24.48;51.41
42297;BME280;28985;47.456;19.016;2022-07-05T01:56:55;100161.50;;;24.48;50.90
42297;BME280;28985;47.456;19.016;2022-07-05T01:59:21;100158.75;;;24.48;50.89
42297;BME280;28985;47.456;19.016;2022-07-05T02:01:48;100162.94;;;24.51;50.56
42297;BME280;28985;47.456;19.016;2022-07-05T02:04:16;100160.41;;;24.49;50.88
42297;BME280;28985;47.456;19.016;2022-07-05T02:06:43;100161.00;;;24.51;50.95
42297;BME280;28985;47.456;19.016;2022-07-05T02:09:11;100169.25;;;24.51;51.29
42297;BME280;28985;47.456;19.016;2022-07-05T02:11:38;100162.44;;;24.54;50.76
42297;BME280;28985;47.456;19.016;2022-07-05T02:14:04;100169.63;;;24.55;50.69
42297;BME280;28985;47.456;19.016;2022-07-05T02:16:31;100163.53;;;24.53;51.05
42297;BME280;28985;47.456;19.016;2022-07-05T02:18:58;100165.19;;;24.54;50.30
42297;BME280;28985;47.456;19.016;2022-07-05T02:21:25;100162.44;;;24.54;50.38
42297;BME280;28985;47.456;19.016;2022-07-05T02:23:52;100154.44;;;24.52;51.02
42297;BME280;28985;47.456;19.016;2022-07-05T02:26:18;100147.03;;;24.53;50.19
42297;BME280;28985;47.456;19.016;2022-07-05T02:28:45;100139.00;;;24.51;53.34
42297;BME280;28985;47.456;19.016;2022-07-05T02:31:12;100128.94;;;24.45;54.23
42297;BME280;28985;47.456;19.016;2022-07-05T02:33:39;100132.16;;;24.42;52.81
42297;BME280;28985;47.456;19.016;2022-07-05T02:36:10;100126.75;;;24.35;51.83
42297;BME280;28985;47.456;19.016;2022-07-05T02:38:37;100124.72;;;24.31;53.00
42297;BME280;28985;47.456;19.016;2022-07-05T02:41:05;100132.00;;;24.25;54.24
42297;BME280;28985;47.456;19.016;2022-07-05T02:43:33;100139.66;;;24.23;54.32
42297;BME280;28985;47.456;19.016;2022-07-05T02:46:01;100154.84;;;24.25;53.67
42297;BME280;28985;47.456;19.016;2022-07-05T02:48:28;100158.53;;;24.19;53.83
42297;BME280;28985;47.456;19.016;2022-07-05T02:50:55;100150.06;;;24.21;53.61
42297;BME280;28985;47.456;19.016;2022-07-05T02:53:22;100155.78;;;24.19;55.11
42297;BME280;28985;47.456;19.016;2022-07-05T02:55:49;100152.03;;;24.13;54.02
42297;BME280;28985;47.456;19.016;2022-07-05T02:58:15;100159.31;;;24.08;53.32
42297;BME280;28985;47.456;19.016;2022-07-05T03:00:47;100157.16;;;24.10;53.11
42297;BME280;28985;47.456;19.016;2022-07-05T03:03:17;100149.56;;;24.12;52.76
42297;BME280;28985;47.456;19.016;2022-07-05T03:05:43;100155.06;;;24.12;53.10
42297;BME280;28985;47.456;19.016;2022-07-05T03:08:10;100156.09;;;24.11;52.45
42297;BME280;28985;47.456;19.016;2022-07-05T03:10:37;100148.69;;;24.11;52.68
42297;BME280;28985;47.456;19.016;2022-07-05T03:13:05;100149.78;;;24.10;54.21
42297;BME280;28985;47.456;19.016;2022-07-05T03:15:32;100153.97;;;24.13;53.76
42297;BME280;28985;47.456;19.016;2022-07-05T03:17:58;100151.00;;;24.15;55.04
42297;BME280;28985;47.456;19.016;2022-07-05T03:20:25;100154.56;;;24.15;55.82
42297;BME280;28985;47.456;19.016;2022-07-05T03:22:51;100148.25;;;24.15;58.78
42297;BME280;28985;47.456;19.016;2022-07-05T03:25:18;100146.94;;;24.17;57.23
42297;BME280;28985;47.456;19.016;2022-07-05T03:27:45;100142.13;;;24.12;58.55
42297;BME280;28985;47.456;19.016;2022-07-05T03:30:12;100145.78;;;24.06;58.45
42297;BME280;28985;47.456;19.016;2022-07-05T03:32:39;100142.19;;;24.06;59.02
42297;BME280;28985;47.456;19.016;2022-07-05T03:35:06;100142.44;;;24.04;56.49
42297;BME280;28985;47.456;19.016;2022-07-05T03:37:32;100142.94;;;23.82;56.33
42297;BME280;28985;47.456;19.016;2022-07-05T03:39:59;100154.91;;;23.88;56.38
42297;BME280;28985;47.456;19.016;2022-07-05T03:42:25;100156.22;;;23.85;57.44
42297;BME280;28985;47.456;19.016;2022-07-05T03:44:53;100166.84;;;23.82;56.40
42297;BME280;28985;47.456;19.016;2022-07-05T03:47:20;100168.38;;;23.78;57.88
42297;BME280;28985;47.456;19.016;2022-07-05T03:49:46;100173.38;;;23.81;57.45
42297;BME280;28985;47.456;19.016;2022-07-05T03:52:14;100178.44;;;23.84;56.41
42297;BME280;28985;47.456;19.016;2022-07-05T03:54:40;100180.69;;;23.87;56.51
42297;BME280;28985;47.456;19.016;2022-07-05T03:57:07;100179.66;;;23.88;56.45
42297;BME280;28985;47.456;19.016;2022-07-05T03:59:33;100188.34;;;23.85;56.65
42297;BME280;28985;47.456;19.016;2022-07-05T04:02:00;100183.00;;;23.90;58.93
42297;BME280;28985;47.456;19.016;2022-07-05T04:04:27;100186.72;;;23.96;56.86
42297;BME280;28985;47.456;19.016;2022-07-05T04:06:53;100187.13;;;23.99;56.96
42297;BME280;28985;47.456;19.016;2022-07-05T04:09:20;100184.38;;;23.99;56.07
42297;BME280;28985;47.456;19.016;2022-07-05T04:11:46;100189.16;;;24.04;55.22
42297;BME280;28985;47.456;19.016;2022-07-05T04:14:13;100179.00;;;24.05;55.05
42297;BME280;28985;47.456;19.016;2022-07-05T04:16:40;100190.44;;;24.08;54.45
42297;BME280;28985;47.456;19.016;2022-07-05T04:19:06;100183.00;;;24.09;54.77
42297;BME280;28985;47.456;19.016;2022-07-05T04:21:33;100183.38;;;24.12;54.20
42297;BME280;28985;47.456;19.016;2022-07-05T04:23:59;100188.41;;;24.16;54.50
42297;BME280;28985;47.456;19.016;2022-07-05T04:26:26;100173.59;;;24.17;54.86
42297;BME280;28985;47.456;19.016;2022-07-05T04:28:52;100172.06;;;24.21;54.28
42297;BME280;28985;47.456;19.016;2022-07-05T04:31:22;100176.75;;;24.32;52.94
42297;BME280;28985;47.456;19.016;2022-07-05T04:33:49;100172.00;;;24.39;53.24
42297;BME280;28985;47.456;19.016;2022-07-05T04:36:16;100170.56;;;24.49;51.87
42297;BME280;28985;47.456;19.016;2022-07-05T04:38:43;100172.16;;;24.57;52.06
42297;BME280;28985;47.456;19.016;2022-07-05T04:41:10;100161.63;;;24.65;52.04
42297;BME280;28985;47.456;19.016;2022-07-05T04:43:36;100167.84;;;24.73;52.43
42297;BME280;28985;47.456;19.016;2022-07-05T04:46:03;100165.00;;;24.79;50.67
42297;BME280;28985;47.456;19.016;2022-07-05T04:48:30;100159.44;;;24.86;50.43
42297;BME280;28985;47.456;19.016;2022-07-05T04:50:56;100157.84;;;24.90;50.75
42297;BME280;28985;47.456;19.016;2022-07-05T04:53:23;100159.41;;;24.98;50.88
42297;BME280;28985;47.456;19.016;2022-07-05T04:55:50;100147.94;;;25.01;50.75
42297;BME280;28985;47.456;19.016;2022-07-05T04:58:16;100157.38;;;25.05;49.79
42297;BME280;28985;47.456;19.016;2022-07-05T05:00:43;100156.69;;;25.10;49.62
42297;BME280;28985;47.456;19.016;2022-07-05T05:03:10;100149.84;;;25.13;49.26
42297;BME280;28985;47.456;19.016;2022-07-05T05:05:36;100150.44;;;25.15;48.85
42297;BME280;28985;47.456;19.016;2022-07-05T05:08:03;100136.19;;;25.18;49.40
42297;BME280;28985;47.456;19.016;2022-07-05T05:10:30;100138.22;;;25.23;47.59
42297;BME280;28985;47.456;19.016;2022-07-05T05:12:56;100144.94;;;25.27;47.99
42297;BME280;28985;47.456;19.016;2022-07-05T05:15:23;100143.13;;;25.32;48.60
42297;BME280;28985;47.456;19.016;2022-07-05T05:17:50;100137.47;;;25.39;48.52
42297;BME280;28985;47.456;19.016;2022-07-05T05:20:17;100139.03;;;25.47;48.07
42297;BME280;28985;47.456;19.016;2022-07-05T05:22:45;100136.84;;;25.49;48.49
42297;BME280;28985;47.456;19.016;2022-07-05T05:25:13;100137.22;;;25.53;48.38
42297;BME280;28985;47.456;19.016;2022-07-05T05:27:42;100135.91;;;25.55;48.60
42297;BME280;28985;47.456;19.016;2022-07-05T05:30:13;100141.78;;;25.59;48.61
42297;BME280;28985;47.456;19.016;2022-07-05T05:32:40;100148.25;;;25.65;48.57
42297;BME280;28985;47.456;19.016;2022-07-05T05:35:08;100152.41;;;25.67;48.61
42297;BME280;28985;47.456;19.016;2022-07-05T05:37:52;100159.34;;;25.70;49.04
42297;BME280;28985;47.456;19.016;2022-07-05T05:40:20;100152.28;;;25.74;48.66
42297;BME280;28985;47.456;19.016;2022-07-05T05:42:48;100152.84;;;25.76;47.86
42297;BME280;28985;47.456;19.016;2022-07-05T05:45:16;100160.66;;;25.79;47.24
42297;BME280;28985;47.456;19.016;2022-07-05T05:47:46;100166.50;;;25.83;47.52
42297;BME280;28985;47.456;19.016;2022-07-05T05:50:13;100166.84;;;25.86;47.44
42297;BME280;28985;47.456;19.016;2022-07-05T05:52:40;100174.66;;;25.90;46.87
42297;BME280;28985;47.456;19.016;2022-07-05T05:55:07;100171.63;;;25.91;47.41
42297;BME280;28985;47.456;19.016;2022-07-05T05:57:34;100175.47;;;25.90;48.24
42297;BME280;28985;47.456;19.016;2022-07-05T06:00:04;100181.34;;;25.94;47.42
42297;BME280;28985;47.456;19.016;2022-07-05T06:02:31;100187.69;;;25.94;46.80
42297;BME280;28985;47.456;19.016;2022-07-05T06:04:58;100193.44;;;25.93;47.58
42297;BME280;28985;47.456;19.016;2022-07-05T06:07:25;100195.97;;;25.94;46.69
42297;BME280;28985;47.456;19.016;2022-07-05T06:09:54;100198.63;;;25.89;46.19
42297;BME280;28985;47.456;19.016;2022-07-05T06:12:20;100193.84;;;25.84;48.52
42297;BME280;28985;47.456;19.016;2022-07-05T06:14:47;100202.34;;;25.83;46.52
42297;BME280;28985;47.456;19.016;2022-07-05T06:17:13;100201.03;;;25.85;46.57
42297;BME280;28985;47.456;19.016;2022-07-05T06:19:40;100199.38;;;25.84;48.30
42297;BME280;28985;47.456;19.016;2022-07-05T06:22:07;100190.00;;;25.85;46.42
42297;BME280;28985;47.456;19.016;2022-07-05T06:24:34;100174.38;;;25.91;47.99
42297;BME280;28985;47.456;19.016;2022-07-05T06:27:00;100179.91;;;25.91;47.88
42297;BME280;28985;47.456;19.016;2022-07-05T06:29:27;100183.28;;;25.93;46.89
42297;BME280;28985;47.456;19.016;2022-07-05T06:31:53;100183.03;;;25.95;45.91
42297;BME280;28985;47.456;19.016;2022-07-05T06:34:20;100164.06;;;25.98;47.14
42297;BME280;28985;47.456;19.016;2022-07-05T06:36:47;100180.34;;;26.00;46.72
42297;BME280;28985;47.456;19.016;2022-07-05T06:39:13;100168.41;;;25.94;46.16
42297;BME280;28985;47.456;19.016;2022-07-05T06:41:40;100168.72;;;25.98;46.99
42297;BME280;28985;47.456;19.016;2022-07-05T06:44:06;100168.16;;;25.96;47.05
42297;BME280;28985;47.456;19.016;2022-07-05T06:46:53;100178.69;;;25.99;46.93
42297;BME280;28985;47.456;19.016;2022-07-05T06:49:20;100177.47;;;26.07;46.62
42297;BME280;28985;47.456;19.016;2022-07-05T06:51:46;100173.72;;;26.13;46.56
42297;BME280;28985;47.456;19.016;2022-07-05T06:54:13;100178.59;;;26.23;45.84
42297;BME280;28985;47.456;19.016;2022-07-05T06:57:02;100175.47;;;26.31;47.00
42297;BME280;28985;47.456;19.016;2022-07-05T06:59:49;100159.81;;;26.37;46.66
42297;BME280;28985;47.456;19.016;2022-07-05T07:02:24;100175.66;;;26.42;45.71
42297;BME280;28985;47.456;19.016;2022-07-05T07:04:51;100166.38;;;26.48;47.42
42297;BME280;28985;47.456;19.016;2022-07-05T07:07:36;100171.06;;;26.47;45.82
42297;BME280;28985;47.456;19.016;2022-07-05T07:10:21;100182.28;;;26.58;46.80
42297;BME280;28985;47.456;19.016;2022-07-05T07:12:54;100171.81;;;26.60;45.75
42297;BME280;28985;47.456;19.016;2022-07-05T07:15:21;100165.47;;;26.76;46.38
42297;BME280;28985;47.456;19.016;2022-07-05T07:17:47;100162.19;;;26.79;45.14
42297;BME280;28985;47.456;19.016;2022-07-05T07:20:14;100154.75;;;26.97;46.57
42297;BME280;28985;47.456;19.016;2022-07-05T07:22:41;100161.53;;;27.06;44.80
42297;BME280;28985;47.456;19.016;2022-07-05T07:25:08;100164.06;;;27.08;43.99
42297;BME280;28985;47.456;19.016;2022-07-05T07:27:46;100170.72;;;27.12;43.79
42297;BME280;28985;47.456;19.016;2022-07-05T07:30:15;100177.69;;;27.15;43.23
42297;BME280;28985;47.456;19.016;2022-07-05T07:32:42;100178.94;;;27.24;44.76
42297;BME280;28985;47.456;19.016;2022-07-05T07:35:09;100177.66;;;27.32;45.53
42297;BME280;28985;47.456;19.016;2022-07-05T07:37:36;100167.00;;;27.41;44.81
42297;BME280;28985;47.456;19.016;2022-07-05T07:40:07;100162.13;;;27.48;44.95
42297;BME280;28985;47.456;19.016;2022-07-05T07:42:34;100167.91;;;27.46;44.10
42297;BME280;28985;47.456;19.016;2022-07-05T07:45:01;100156.25;;;27.44;43.96
42297;BME280;28985;47.456;19.016;2022-07-05T07:47:34;100157.47;;;27.54;44.17
42297;BME280;28985;47.456;19.016;2022-07-05T07:50:02;100155.41;;;27.61;44.13
42297;BME280;28985;47.456;19.016;2022-07-05T07:52:29;100159.84;;;27.62;44.04
42297;BME280;28985;47.456;19.016;2022-07-05T07:55:04;100156.03;;;27.68;44.60
42297;BME280;28985;47.456;19.016;2022-07-05T07:57:31;100168.13;;;27.84;44.67
42297;BME280;28985;47.456;19.016;2022-07-05T07:59:58;100166.94;;;27.80;43.80
42297;BME280;28985;47.456;19.016;2022-07-05T08:02:24;100164.41;;;27.73;43.50
42297;BME280;28985;47.456;19.016;2022-07-05T08:04:51;100167.72;;;27.76;44.69
42297;BME280;28985;47.456;19.016;2022-07-05T08:07:18;100169.34;;;27.94;44.96
42297;BME280;28985;47.456;19.016;2022-07-05T08:09:45;100166.81;;;27.92;42.99
42297;BME280;28985;47.456;19.016;2022-07-05T08:12:12;100165.28;;;28.01;44.74
42297;BME280;28985;47.456;19.016;2022-07-05T08:14:39;100170.03;;;28.06;45.24
42297;BME280;28985;47.456;19.016;2022-07-05T08:17:05;100177.91;;;28.20;44.37
42297;BME280;28985;47.456;19.016;2022-07-05T08:19:35;100184.69;;;28.29;43.40
42297;BME280;28985;47.456;19.016;2022-07-05T08:22:22;100176.69;;;28.33;42.87
42297;BME280;28985;47.456;19.016;2022-07-05T08:24:49;100175.38;;;28.40;44.01
42297;BME280;28985;47.456;19.016;2022-07-05T08:27:16;100171.22;;;28.38;44.61
42297;BME280;28985;47.456;19.016;2022-07-05T08:29:43;100177.25;;;28.35;44.80
42297;BME280;28985;47.456;19.016;2022-07-05T08:32:10;100182.84;;;28.40;44.12
42297;BME280;28985;47.456;19.016;2022-07-05T08:34:37;100182.06;;;28.45;44.12
42297;BME280;28985;47.456;19.016;2022-07-05T08:37:04;100182.97;;;28.23;43.37
42297;BME280;28985;47.456;19.016;2022-07-05T08:39:40;100187.91;;;28.48;45.49
42297;BME280;28985;47.456;19.016;2022-07-05T08:42:09;100188.34;;;28.67;44.67
42297;BME280;28985;47.456;19.016;2022-07-05T08:44:38;100185.97;;;28.81;43.01
42297;BME280;28985;47.456;19.016;2022-07-05T08:47:09;100177.75;;;28.87;43.67
42297;BME280;28985;47.456;19.016;2022-07-05T08:49:38;100179.19;;;28.94;43.08
42297;BME280;28985;47.456;19.016;2022-07-05T08:52:09;100189.19;;;28.68;42.16
42297;BME280;28985;47.456;19.016;2022-07-05T08:54:37;100192.84;;;28.74;41.99
42297;BME280;28985;47.456;19.016;2022-07-05T08:57:04;100187.94;;;28.81;44.22
42297;BME280;28985;47.456;19.016;2022-07-05T08:59:38;100181.00;;;28.84;43.12
42297;BME280;28985;47.456;19.016;2022-07-05T09:02:11;100188.69;;;28.76;43.88
42297;BME280;28985;47.456;19.016;2022-07-05T09:04:42;100190.38;;;28.77;43.35
42297;BME280;28985;47.456;19.016;2022-07-05T09:07:13;100190.88;;;28.69;43.12
42297;BME280;28985;47.456;19.016;2022-07-05T09:09:41;100187.84;;;28.71;42.89
42297;BME280;28985;47.456;19.016;2022-07-05T09:12:13;100183.78;;;28.84;41.89
42297;BME280;28985;47.456;19.016;2022-07-05T09:14:53;100178.63;;;28.98;43.62
42297;BME280;28985;47.456;19.016;2022-07-05T09:17:20;100183.84;;;28.89;42.36
42297;BME280;28985;47.456;19.016;2022-07-05T09:20:03;100187.72;;;28.88;42.76
42297;BME280;28985;47.456;19.016;2022-07-05T09:22:45;100186.91;;;28.92;43.31
42297;BME280;28985;47.456;19.016;2022-07-05T09:25:22;100191.16;;;28.73;43.50
42297;BME280;28985;47.456;19.016;2022-07-05T09:27:52;100191.00;;;28.52;42.75
42297;BME280;28985;47.456;19.016;2022-07-05T09:30:27;100177.41;;;28.50;44.04
42297;BME280;28985;47.456;19.016;2022-07-05T09:35:34;100185.81;;;27.83;44.27
42297;BME280;28985;47.456;19.016;2022-07-05T09:38:00;100203.50;;;27.43;43.62
42297;BME280;28985;47.456;19.016;2022-07-05T09:40:33;100204.25;;;27.16;44.45
42297;BME280;28985;47.456;19.016;2022-07-05T09:43:12;100215.63;;;27.02;45.05
42297;BME280;28985;47.456;19.016;2022-07-05T09:45:39;100210.31;;;26.66;45.74
42297;BME280;28985;47.456;19.016;2022-07-05T09:48:07;100206.03;;;26.59;46.91
42297;BME280;28985;47.456;19.016;2022-07-05T09:51:04;100204.28;;;26.52;47.70
42297;BME280;28985;47.456;19.016;2022-07-05T09:53:53;100220.09;;;26.28;47.93
42297;BME280;28985;47.456;19.016;2022-07-05T09:56:26;100233.19;;;26.09;49.05
42297;BME280;28985;47.456;19.016;2022-07-05T09:59:11;100247.56;;;25.70;50.42
42297;BME280;28985;47.456;19.016;2022-07-05T10:01:38;100256.81;;;25.64;51.17
42297;BME280;28985;47.456;19.016;2022-07-05T10:04:08;100254.50;;;25.48;52.16
42297;BME280;28985;47.456;19.016;2022-07-05T10:06:34;100250.81;;;25.43;52.57
42297;BME280;28985;47.456;19.016;2022-07-05T10:09:01;100249.50;;;25.22;53.59
42297;BME280;28985;47.456;19.016;2022-07-05T10:11:28;100245.88;;;25.09;55.31
42297;BME280;28985;47.456;19.016;2022-07-05T10:13:58;100243.22;;;25.14;60.37
42297;BME280;28985;47.456;19.016;2022-07-05T10:16:24;100243.13;;;25.09;62.79
42297;BME280;28985;47.456;19.016;2022-07-05T10:18:53;100236.16;;;24.94;64.13
42297;BME280;28985;47.456;19.016;2022-07-05T10:21:21;100239.06;;;24.69;64.61
42297;BME280;28985;47.456;19.016;2022-07-05T10:23:49;100249.81;;;24.28;64.98
42297;BME280;28985;47.456;19.016;2022-07-05T10:26:20;100260.16;;;24.14;68.49
42297;BME280;28985;47.456;19.016;2022-07-05T10:28:49;100260.84;;;23.91;68.12
42297;BME280;28985;47.456;19.016;2022-07-05T10:31:23;100259.22;;;23.64;68.71
42297;BME280;28985;47.456;19.016;2022-07-05T10:33:51;100254.84;;;23.56;70.60
42297;BME280;28985;47.456;19.016;2022-07-05T10:36:18;100266.38;;;23.46;69.71
42297;BME280;28985;47.456;19.016;2022-07-05T10:38:46;100265.28;;;23.22;73.40
42297;BME280;28985;47.456;19.016;2022-07-05T10:41:18;100269.25;;;23.01;72.62
42297;BME280;28985;47.456;19.016;2022-07-05T10:43:55;100279.81;;;22.72;72.48
42297;BME280;28985;47.456;19.016;2022-07-05T10:46:38;100286.75;;;22.74;73.67
42297;BME280;28985;47.456;19.016;2022-07-05T10:49:15;100292.41;;;22.79;75.25
42297;BME280;28985;47.456;19.016;2022-07-05T10:51:44;100281.63;;;22.85;74.78
42297;BME280;28985;47.456;19.016;2022-07-05T10:54:18;100290.19;;;22.63;69.84
42297;BME280;28985;47.456;19.016;2022-07-05T10:57:20;100303.13;;;22.56;71.69
42297;BME280;28985;47.456;19.016;2022-07-05T11:00:08;100301.84;;;22.58;71.27
42297;BME280;28985;47.456;19.016;2022-07-05T11:02:37;100294.25;;;22.47;72.29
42297;BME280;28985;47.456;19.016;2022-07-05T11:05:04;100302.72;;;22.52;70.48
42297;BME280;28985;47.456;19.016;2022-07-05T11:07:59;100309.25;;;22.44;71.50
42297;BME280;28985;47.456;19.016;2022-07-05T11:10:26;100319.00;;;22.33;73.48
42297;BME280;28985;47.456;19.016;2022-07-05T11:12:52;100320.09;;;22.25;73.87
42297;BME280;28985;47.456;19.016;2022-07-05T11:15:19;100325.41;;;22.13;75.48
42297;BME280;28985;47.456;19.016;2022-07-05T11:17:46;100331.78;;;21.94;75.53
42297;BME280;28985;47.456;19.016;2022-07-05T11:20:30;100324.63;;;21.93;76.51
42297;BME280;28985;47.456;19.016;2022-07-05T11:23:25;100330.56;;;21.76;77.54
42297;BME280;28985;47.456;19.016;2022-07-05T11:25:53;100314.06;;;21.63;75.93
42297;BME280;28985;47.456;19.016;2022-07-05T11:28:21;100304.63;;;21.79;75.69
42297;BME280;28985;47.456;19.016;2022-07-05T11:30:55;100303.34;;;21.81;76.48
42297;BME280;28985;47.456;19.016;2022-07-05T11:33:42;100284.97;;;21.95;78.37
42297;BME280;28985;47.456;19.016;2022-07-05T11:36:22;100272.91;;;22.03;80.92
42297;BME280;28985;47.456;19.016;2022-07-05T11:39:12;100277.97;;;22.13;82.30
42297;BME280;28985;47.456;19.016;2022-07-05T11:41:42;100283.63;;;22.18;82.77
42297;BME280;28985;47.456;19.016;2022-07-05T11:44:08;100287.41;;;22.24;79.35
42297;BME280;28985;47.456;19.016;2022-07-05T11:46:36;100285.66;;;22.36;78.80
42297;BME280;28985;47.456;19.016;2022-07-05T11:49:18;100286.06;;;22.40;78.01
42297;BME280;28985;47.456;19.016;2022-07-05T11:51:59;100278.22;;;22.50;77.56
42297;BME280;28985;47.456;19.016;2022-07-05T11:54:31;100271.94;;;22.36;73.74
42297;BME280;28985;47.456;19.016;2022-07-05T11:57:00;100274.88;;;22.42;74.85
42297;BME280;28985;47.456;19.016;2022-07-05T11:59:27;100278.69;;;22.40;71.32
42297;BME280;28985;47.456;19.016;2022-07-05T12:01:54;100274.81;;;22.48;76.17
42297;BME280;28985;47.456;19.016;2022-07-05T12:04:22;100268.63;;;22.66;76.30
42297;BME280;28985;47.456;19.016;2022-07-05T12:06:50;100267.50;;;22.81;76.89
42297;BME280;28985;47.456;19.016;2022-07-05T12:09:22;100254.28;;;22.97;76.45
42297;BME280;28985;47.456;19.016;2022-07-05T12:11:51;100266.22;;;23.09;74.53
42297;BME280;28985;47.456;19.016;2022-07-05T12:14:36;100266.41;;;23.14;74.75
42297;BME280;28985;47.456;19.016;2022-07-05T12:17:16;100260.78;;;23.28;74.77
42297;BME280;28985;47.456;19.016;2022-07-05T12:19:51;100242.03;;;23.25;71.43
42297;BME280;28985;47.456;19.016;2022-07-05T12:22:28;100238.34;;;23.12;72.98
42297;BME280;28985;47.456;19.016;2022-07-05T12:24:54;100242.53;;;23.15;73.43
42297;BME280;28985;47.456;19.016;2022-07-05T12:27:21;100246.78;;;23.11;75.64
42297;BME280;28985;47.456;19.016;2022-07-05T12:29:48;100249.50;;;22.85;77.09
42297;BME280;28985;47.456;19.016;2022-07-05T12:32:14;100247.78;;;22.91;74.25
42297;BME280;28985;47.456;19.016;2022-07-05T12:34:41;100262.34;;;22.59;73.90
42297;BME280;28985;47.456;19.016;2022-07-05T12:37:08;100271.41;;;22.60;75.23
42297;BME280;28985;47.456;19.016;2022-07-05T12:39:35;100266.00;;;22.53;74.87
42297;BME280;28985;47.456;19.016;2022-07-05T12:42:02;100259.31;;;22.35;76.68
42297;BME280;28985;47.456;19.016;2022-07-05T12:44:28;100260.41;;;22.21;76.94
42297;BME280;28985;47.456;19.016;2022-07-05T12:47:03;100260.78;;;22.31;76.38
42297;BME280;28985;47.456;19.016;2022-07-05T12:49:31;100258.22;;;22.36;76.54
42297;BME280;28985;47.456;19.016;2022-07-05T12:52:03;100252.16;;;22.27;78.14
42297;BME280;28985;47.456;19.016;2022-07-05T12:54:33;100250.66;;;22.32;77.61